sensor_id;sensor_type;location;lat;lon;timestamp;P1;durP1;ratioP1;P2;durP2;ratioP2
68126;SDS011;54931;52.098;21.006;2022-07-19T00:00:13;8.60;;;5.20;;
68126;SDS011;54931;52.098;21.006;2022-07-19T00:03:01;11.60;;;5.50;;
68126;SDS011;54931;52.098;21.006;2022-07-19T00:05:28;9.70;;;5.70;;
68126;SDS011;54931;52.098;21.006;2022-07-19T00:07:56;12.40;;;5.80;;
68126;SDS011;54931;52.098;21.006;2022-07-19T00:10:23;12.00;;;6.00;;
68126;SDS011;54931;52.098;21.006;2022-07-19T00:12:51;7.10;;;4.80;;
68126;SDS011;54931;52.098;21.006;2022-07-19T00:15:18;7.40;;;5.00;;
68126;SDS011;54931;52.098;21.006;2022-07-19T00:17:47;10.70;;;5.50;;
68126;SDS011;54931;52.098;21.006;2022-07-19T00:20:18;11.80;;;5.70;;
68126;SDS011;54931;52.098;21.006;2022-07-19T00:22:47;9.70;;;5.50;;
68126;SDS011;54931;52.098;21.006;2022-07-19T00:25:15;9.50;;;5.50;;
68126;SDS011;54931;52.098;21.006;2022-07-19T00:27:42;9.80;;;6.00;;
68126;SDS011;54931;52.098;21.006;2022-07-19T00:30:10;10.60;;;5.70;;
68126;SDS011;54931;52.098;21.006;2022-07-19T00:32:38;12.50;;;5.20;;
68126;SDS011;54931;52.098;21.006;2022-07-19T00:35:05;8.00;;;5.20;;
68126;SDS011;54931;52.098;21.006;2022-07-19T00:37:33;7.80;;;4.80;;
68126;SDS011;54931;52.098;21.006;2022-07-19T00:40:00;7.70;;;5.50;;
68126;SDS011;54931;52.098;21.006;2022-07-19T00:42:28;9.80;;;5.30;;
68126;SDS011;54931;52.098;21.006;2022-07-19T00:44:55;8.80;;;5.30;;
68126;SDS011;54931;52.098;21.006;2022-07-19T00:47:22;8.70;;;5.70;;
68126;SDS011;54931;52.098;21.006;2022-07-19T00:49:51;11.50;;;5.60;;
68126;SDS011;54931;52.098;21.006;2022-07-19T00:52:20;9.90;;;5.90;;
68126;SDS011;54931;52.098;21.006;2022-07-19T00:54:53;10.00;;;5.80;;
68126;SDS011;54931;52.098;21.006;2022-07-19T00:57:23;10.90;;;5.80;;
68126;SDS011;54931;52.098;21.006;2022-07-19T00:59:53;8.80;;;5.60;;
68126;SDS011;54931;52.098;21.006;2022-07-19T01:02:22;13.30;;;6.00;;
68126;SDS011;54931;52.098;21.006;2022-07-19T01:04:51;12.90;;;6.50;;
68126;SDS011;54931;52.098;21.006;2022-07-19T01:07:18;10.30;;;6.20;;
68126;SDS011;54931;52.098;21.006;2022-07-19T01:09:45;12.70;;;6.50;;
68126;SDS011;54931;52.098;21.006;2022-07-19T01:12:13;12.70;;;6.60;;
68126;SDS011;54931;52.098;21.006;2022-07-19T01:14:41;11.90;;;5.90;;
68126;SDS011;54931;52.098;21.006;2022-07-19T01:17:08;13.00;;;6.60;;
68126;SDS011;54931;52.098;21.006;2022-07-19T01:19:36;12.30;;;6.20;;
68126;SDS011;54931;52.098;21.006;2022-07-19T01:22:03;13.50;;;6.30;;
68126;SDS011;54931;52.098;21.006;2022-07-19T01:24:30;11.60;;;6.90;;
68126;SDS011;54931;52.098;21.006;2022-07-19T01:26:57;14.00;;;7.00;;
68126;SDS011;54931;52.098;21.006;2022-07-19T01:29:25;11.80;;;6.50;;
68126;SDS011;54931;52.098;21.006;2022-07-19T01:31:52;11.70;;;6.80;;
68126;SDS011;54931;52.098;21.006;2022-07-19T01:34:19;10.20;;;6.30;;
68126;SDS011;54931;52.098;21.006;2022-07-19T01:36:47;12.10;;;6.40;;
68126;SDS011;54931;52.098;21.006;2022-07-19T01:39:14;9.10;;;5.60;;
68126;SDS011;54931;52.098;21.006;2022-07-19T01:41:41;11.50;;;5.60;;
68126;SDS011;54931;52.098;21.006;2022-07-19T01:44:09;9.80;;;5.70;;
68126;SDS011;54931;52.098;21.006;2022-07-19T01:46:36;13.60;;;6.20;;
68126;SDS011;54931;52.098;21.006;2022-07-19T01:49:03;10.80;;;6.30;;
68126;SDS011;54931;52.098;21.006;2022-07-19T01:51:31;11.90;;;6.00;;
68126;SDS011;54931;52.098;21.006;2022-07-19T01:53:58;10.90;;;6.00;;
68126;SDS011;54931;52.098;21.006;2022-07-19T01:56:26;13.30;;;6.80;;
68126;SDS011;54931;52.098;21.006;2022-07-19T01:58:53;9.40;;;5.70;;
68126;SDS011;54931;52.098;21.006;2022-07-19T02:01:20;10.30;;;5.80;;
68126;SDS011;54931;52.098;21.006;2022-07-19T02:03:47;9.50;;;5.40;;
68126;SDS011;54931;52.098;21.006;2022-07-19T02:06:15;10.40;;;6.10;;
68126;SDS011;54931;52.098;21.006;2022-07-19T02:08:42;13.20;;;6.10;;
68126;SDS011;54931;52.098;21.006;2022-07-19T02:11:09;11.50;;;6.40;;
68126;SDS011;54931;52.098;21.006;2022-07-19T02:13:57;11.50;;;5.90;;
68126;SDS011;54931;52.098;21.006;2022-07-19T02:16:24;10.70;;;6.20;;
68126;SDS011;54931;52.098;21.006;2022-07-19T02:18:51;9.70;;;5.70;;
68126;SDS011;54931;52.098;21.006;2022-07-19T02:21:18;9.70;;;5.80;;
68126;SDS011;54931;52.098;21.006;2022-07-19T02:23:45;9.50;;;5.60;;
68126;SDS011;54931;52.098;21.006;2022-07-19T02:26:13;11.80;;;5.80;;
68126;SDS011;54931;52.098;21.006;2022-07-19T02:28:40;12.30;;;6.60;;
68126;SDS011;54931;52.098;21.006;2022-07-19T02:31:09;13.10;;;6.20;;
68126;SDS011;54931;52.098;21.006;2022-07-19T02:33:36;11.70;;;6.30;;
68126;SDS011;54931;52.098;21.006;2022-07-19T02:36:03;11.60;;;5.90;;
68126;SDS011;54931;52.098;21.006;2022-07-19T02:38:31;8.60;;;5.20;;
68126;SDS011;54931;52.098;21.006;2022-07-19T02:40:59;11.70;;;6.20;;
68126;SDS011;54931;52.098;21.006;2022-07-19T02:43:26;11.90;;;6.30;;
68126;SDS011;54931;52.098;21.006;2022-07-19T02:45:53;10.80;;;6.20;;
68126;SDS011;54931;52.098;21.006;2022-07-19T02:48:21;11.90;;;6.50;;
68126;SDS011;54931;52.098;21.006;2022-07-19T02:50:48;11.40;;;5.70;;
68126;SDS011;54931;52.098;21.006;2022-07-19T02:53:15;8.50;;;5.40;;
68126;SDS011;54931;52.098;21.006;2022-07-19T02:55:42;14.60;;;5.80;;
68126;SDS011;54931;52.098;21.006;2022-07-19T02:58:10;12.50;;;6.20;;
68126;SDS011;54931;52.098;21.006;2022-07-19T03:00:37;10.50;;;6.10;;
68126;SDS011;54931;52.098;21.006;2022-07-19T03:03:04;11.70;;;6.60;;
68126;SDS011;54931;52.098;21.006;2022-07-19T03:05:50;10.70;;;6.10;;
68126;SDS011;54931;52.098;21.006;2022-07-19T03:08:18;9.90;;;6.30;;
68126;SDS011;54931;52.098;21.006;2022-07-19T03:10:45;9.60;;;5.30;;
68126;SDS011;54931;52.098;21.006;2022-07-19T03:13:12;11.70;;;5.60;;
68126;SDS011;54931;52.098;21.006;2022-07-19T03:15:39;11.60;;;6.20;;
68126;SDS011;54931;52.098;21.006;2022-07-19T03:18:07;11.60;;;6.30;;
68126;SDS011;54931;52.098;21.006;2022-07-19T03:20:34;10.70;;;6.40;;
68126;SDS011;54931;52.098;21.006;2022-07-19T03:23:01;11.30;;;6.20;;
68126;SDS011;54931;52.098;21.006;2022-07-19T03:25:28;10.70;;;6.40;;
68126;SDS011;54931;52.098;21.006;2022-07-19T03:27:55;8.90;;;5.60;;
68126;SDS011;54931;52.098;21.006;2022-07-19T03:30:23;10.70;;;6.10;;
68126;SDS011;54931;52.098;21.006;2022-07-19T03:32:50;10.30;;;6.10;;
68126;SDS011;54931;52.098;21.006;2022-07-19T03:35:18;13.10;;;6.40;;
68126;SDS011;54931;52.098;21.006;2022-07-19T03:37:46;10.60;;;6.10;;
68126;SDS011;54931;52.098;21.006;2022-07-19T03:40:13;9.50;;;5.80;;
68126;SDS011;54931;52.098;21.006;2022-07-19T03:42:41;10.80;;;6.20;;
68126;SDS011;54931;52.098;21.006;2022-07-19T03:45:09;11.00;;;5.60;;
68126;SDS011;54931;52.098;21.006;2022-07-19T03:47:36;9.90;;;6.40;;
68126;SDS011;54931;52.098;21.006;2022-07-19T03:50:04;12.30;;;6.40;;
68126;SDS011;54931;52.098;21.006;2022-07-19T03:52:32;9.70;;;6.40;;
68126;SDS011;54931;52.098;21.006;2022-07-19T03:54:59;11.90;;;6.30;;
68126;SDS011;54931;52.098;21.006;2022-07-19T03:57:26;9.90;;;5.40;;
68126;SDS011;54931;52.098;21.006;2022-07-19T03:59:53;8.50;;;5.50;;
68126;SDS011;54931;52.098;21.006;2022-07-19T04:02:20;14.20;;;5.90;;
68126;SDS011;54931;52.098;21.006;2022-07-19T04:04:48;12.00;;;6.40;;
68126;SDS011;54931;52.098;21.006;2022-07-19T04:07:15;12.20;;;6.20;;
68126;SDS011;54931;52.098;21.006;2022-07-19T04:09:42;10.10;;;6.40;;
68126;SDS011;54931;52.098;21.006;2022-07-19T04:12:09;9.30;;;6.10;;
68126;SDS011;54931;52.098;21.006;2022-07-19T04:14:36;9.50;;;6.00;;
68126;SDS011;54931;52.098;21.006;2022-07-19T04:17:04;11.00;;;6.20;;
68126;SDS011;54931;52.098;21.006;2022-07-19T04:19:31;9.00;;;5.70;;
68126;SDS011;54931;52.098;21.006;2022-07-19T04:21:59;8.90;;;5.60;;
68126;SDS011;54931;52.098;21.006;2022-07-19T04:24:26;10.80;;;5.90;;
68126;SDS011;54931;52.098;21.006;2022-07-19T04:26:53;10.60;;;6.50;;
68126;SDS011;54931;52.098;21.006;2022-07-19T04:29:20;9.20;;;6.50;;
68126;SDS011;54931;52.098;21.006;2022-07-19T04:31:48;13.00;;;6.20;;
68126;SDS011;54931;52.098;21.006;2022-07-19T04:34:15;13.00;;;6.40;;
68126;SDS011;54931;52.098;21.006;2022-07-19T04:36:42;10.60;;;5.90;;
68126;SDS011;54931;52.098;21.006;2022-07-19T04:39:10;9.30;;;5.90;;
68126;SDS011;54931;52.098;21.006;2022-07-19T04:41:37;10.70;;;5.50;;
68126;SDS011;54931;52.098;21.006;2022-07-19T04:44:04;8.60;;;5.20;;
68126;SDS011;54931;52.098;21.006;2022-07-19T04:46:31;11.70;;;6.30;;
68126;SDS011;54931;52.098;21.006;2022-07-19T04:48:59;9.10;;;6.20;;
68126;SDS011;54931;52.098;21.006;2022-07-19T04:51:26;10.10;;;5.80;;
68126;SDS011;54931;52.098;21.006;2022-07-19T04:53:53;12.80;;;6.20;;
68126;SDS011;54931;52.098;21.006;2022-07-19T04:56:20;8.30;;;5.50;;
68126;SDS011;54931;52.098;21.006;2022-07-19T04:58:48;10.50;;;5.90;;
68126;SDS011;54931;52.098;21.006;2022-07-19T05:01:15;11.50;;;5.80;;
68126;SDS011;54931;52.098;21.006;2022-07-19T05:03:42;7.30;;;5.10;;
68126;SDS011;54931;52.098;21.006;2022-07-19T05:06:09;9.10;;;5.10;;
68126;SDS011;54931;52.098;21.006;2022-07-19T05:08:37;10.30;;;5.70;;
68126;SDS011;54931;52.098;21.006;2022-07-19T05:11:05;9.80;;;5.90;;
68126;SDS011;54931;52.098;21.006;2022-07-19T05:13:32;11.70;;;5.80;;
68126;SDS011;54931;52.098;21.006;2022-07-19T05:15:59;9.00;;;5.30;;
68126;SDS011;54931;52.098;21.006;2022-07-19T05:18:27;9.40;;;6.00;;
68126;SDS011;54931;52.098;21.006;2022-07-19T05:20:54;12.10;;;5.80;;
68126;SDS011;54931;52.098;21.006;2022-07-19T05:23:21;11.20;;;6.10;;
68126;SDS011;54931;52.098;21.006;2022-07-19T05:25:48;9.90;;;5.90;;
68126;SDS011;54931;52.098;21.006;2022-07-19T05:28:15;9.00;;;6.00;;
68126;SDS011;54931;52.098;21.006;2022-07-19T05:30:43;9.90;;;5.90;;
68126;SDS011;54931;52.098;21.006;2022-07-19T05:33:10;10.50;;;5.70;;
68126;SDS011;54931;52.098;21.006;2022-07-19T05:35:37;9.90;;;5.40;;
68126;SDS011;54931;52.098;21.006;2022-07-19T05:38:04;10.60;;;5.80;;
68126;SDS011;54931;52.098;21.006;2022-07-19T05:40:32;10.80;;;5.20;;
68126;SDS011;54931;52.098;21.006;2022-07-19T05:42:59;13.70;;;6.30;;
68126;SDS011;54931;52.098;21.006;2022-07-19T05:45:27;9.10;;;5.60;;
68126;SDS011;54931;52.098;21.006;2022-07-19T05:47:54;10.40;;;5.50;;
68126;SDS011;54931;52.098;21.006;2022-07-19T05:50:21;8.80;;;5.10;;
68126;SDS011;54931;52.098;21.006;2022-07-19T05:52:49;12.10;;;5.20;;
68126;SDS011;54931;52.098;21.006;2022-07-19T05:55:16;9.50;;;5.10;;
68126;SDS011;54931;52.098;21.006;2022-07-19T05:57:43;10.40;;;5.80;;
68126;SDS011;54931;52.098;21.006;2022-07-19T06:00:11;11.10;;;5.60;;
68126;SDS011;54931;52.098;21.006;2022-07-19T06:02:38;11.40;;;5.40;;
68126;SDS011;54931;52.098;21.006;2022-07-19T06:05:06;10.10;;;5.60;;
68126;SDS011;54931;52.098;21.006;2022-07-19T06:07:34;11.90;;;5.90;;
68126;SDS011;54931;52.098;21.006;2022-07-19T06:10:03;12.20;;;5.70;;
68126;SDS011;54931;52.098;21.006;2022-07-19T06:12:31;10.70;;;5.50;;
68126;SDS011;54931;52.098;21.006;2022-07-19T06:14:59;15.10;;;6.30;;
68126;SDS011;54931;52.098;21.006;2022-07-19T06:17:26;13.50;;;6.20;;
68126;SDS011;54931;52.098;21.006;2022-07-19T06:19:57;13.80;;;5.60;;
68126;SDS011;54931;52.098;21.006;2022-07-19T06:22:33;15.30;;;6.20;;
68126;SDS011;54931;52.098;21.006;2022-07-19T06:25:00;15.10;;;6.40;;
68126;SDS011;54931;52.098;21.006;2022-07-19T06:27:28;12.00;;;5.30;;
68126;SDS011;54931;52.098;21.006;2022-07-19T06:29:55;20.40;;;5.90;;
68126;SDS011;54931;52.098;21.006;2022-07-19T06:32:22;14.80;;;5.90;;
68126;SDS011;54931;52.098;21.006;2022-07-19T06:34:50;12.70;;;5.30;;
68126;SDS011;54931;52.098;21.006;2022-07-19T06:37:17;16.50;;;5.60;;
68126;SDS011;54931;52.098;21.006;2022-07-19T06:39:44;13.70;;;5.80;;
68126;SDS011;54931;52.098;21.006;2022-07-19T06:42:13;14.60;;;6.00;;
68126;SDS011;54931;52.098;21.006;2022-07-19T06:44:41;14.00;;;5.60;;
68126;SDS011;54931;52.098;21.006;2022-07-19T06:47:08;11.30;;;5.30;;
68126;SDS011;54931;52.098;21.006;2022-07-19T06:49:35;15.10;;;5.10;;
68126;SDS011;54931;52.098;21.006;2022-07-19T06:52:03;15.70;;;5.90;;
68126;SDS011;54931;52.098;21.006;2022-07-19T06:54:30;15.80;;;5.70;;
68126;SDS011;54931;52.098;21.006;2022-07-19T06:56:57;17.70;;;5.80;;
68126;SDS011;54931;52.098;21.006;2022-07-19T06:59:24;17.40;;;5.50;;
68126;SDS011;54931;52.098;21.006;2022-07-19T07:01:52;18.40;;;5.40;;
68126;SDS011;54931;52.098;21.006;2022-07-19T07:04:19;13.20;;;5.40;;
68126;SDS011;54931;52.098;21.006;2022-07-19T07:06:46;19.80;;;5.40;;
68126;SDS011;54931;52.098;21.006;2022-07-19T07:09:13;15.20;;;5.70;;
68126;SDS011;54931;52.098;21.006;2022-07-19T07:11:44;17.90;;;5.20;;
68126;SDS011;54931;52.098;21.006;2022-07-19T07:14:15;14.90;;;5.70;;
68126;SDS011;54931;52.098;21.006;2022-07-19T07:16:42;13.90;;;6.40;;
68126;SDS011;54931;52.098;21.006;2022-07-19T07:19:10;14.20;;;5.20;;
68126;SDS011;54931;52.098;21.006;2022-07-19T07:21:37;15.30;;;5.30;;
68126;SDS011;54931;52.098;21.006;2022-07-19T07:24:05;22.80;;;5.50;;
68126;SDS011;54931;52.098;21.006;2022-07-19T07:26:32;21.10;;;5.50;;
68126;SDS011;54931;52.098;21.006;2022-07-19T07:29:02;16.70;;;5.00;;
68126;SDS011;54931;52.098;21.006;2022-07-19T07:31:29;13.60;;;5.10;;
68126;SDS011;54931;52.098;21.006;2022-07-19T07:33:56;12.20;;;5.00;;
68126;SDS011;54931;52.098;21.006;2022-07-19T07:36:23;12.10;;;5.10;;
68126;SDS011;54931;52.098;21.006;2022-07-19T07:38:51;12.30;;;4.90;;
68126;SDS011;54931;52.098;21.006;2022-07-19T07:41:18;9.80;;;4.70;;
68126;SDS011;54931;52.098;21.006;2022-07-19T07:43:45;10.20;;;4.60;;
68126;SDS011;54931;52.098;21.006;2022-07-19T07:46:13;12.10;;;4.30;;
68126;SDS011;54931;52.098;21.006;2022-07-19T07:48:40;13.30;;;4.20;;
68126;SDS011;54931;52.098;21.006;2022-07-19T07:51:07;8.40;;;3.80;;
68126;SDS011;54931;52.098;21.006;2022-07-19T07:53:34;9.10;;;4.40;;
68126;SDS011;54931;52.098;21.006;2022-07-19T07:56:02;10.70;;;4.40;;
68126;SDS011;54931;52.098;21.006;2022-07-19T07:58:30;8.10;;;4.40;;
68126;SDS011;54931;52.098;21.006;2022-07-19T08:00:57;9.20;;;4.00;;
68126;SDS011;54931;52.098;21.006;2022-07-19T08:03:24;15.20;;;4.60;;
68126;SDS011;54931;52.098;21.006;2022-07-19T08:05:51;7.50;;;3.90;;
68126;SDS011;54931;52.098;21.006;2022-07-19T08:08:19;11.00;;;4.60;;
68126;SDS011;54931;52.098;21.006;2022-07-19T08:10:46;8.90;;;4.50;;
68126;SDS011;54931;52.098;21.006;2022-07-19T08:13:13;9.80;;;4.10;;
68126;SDS011;54931;52.098;21.006;2022-07-19T08:15:41;9.20;;;4.30;;
68126;SDS011;54931;52.098;21.006;2022-07-19T08:18:08;13.40;;;4.40;;
68126;SDS011;54931;52.098;21.006;2022-07-19T08:20:35;12.00;;;4.40;;
68126;SDS011;54931;52.098;21.006;2022-07-19T08:23:02;8.10;;;3.90;;
68126;SDS011;54931;52.098;21.006;2022-07-19T08:25:30;10.00;;;4.20;;
68126;SDS011;54931;52.098;21.006;2022-07-19T08:27:59;12.90;;;4.20;;
68126;SDS011;54931;52.098;21.006;2022-07-19T08:30:27;13.20;;;5.40;;
68126;SDS011;54931;52.098;21.006;2022-07-19T08:32:55;10.50;;;4.10;;
68126;SDS011;54931;52.098;21.006;2022-07-19T08:35:23;7.70;;;4.50;;
68126;SDS011;54931;52.098;21.006;2022-07-19T08:37:50;8.20;;;4.30;;
68126;SDS011;54931;52.098;21.006;2022-07-19T08:40:17;9.70;;;4.20;;
68126;SDS011;54931;52.098;21.006;2022-07-19T08:42:46;9.10;;;4.40;;
68126;SDS011;54931;52.098;21.006;2022-07-19T08:45:14;11.10;;;4.40;;
68126;SDS011;54931;52.098;21.006;2022-07-19T08:47:43;7.60;;;4.60;;
68126;SDS011;54931;52.098;21.006;2022-07-19T08:50:12;8.20;;;4.50;;
68126;SDS011;54931;52.098;21.006;2022-07-19T08:52:39;6.30;;;3.80;;
68126;SDS011;54931;52.098;21.006;2022-07-19T08:55:09;7.30;;;4.60;;
68126;SDS011;54931;52.098;21.006;2022-07-19T08:57:36;8.60;;;3.70;;
68126;SDS011;54931;52.098;21.006;2022-07-19T09:00:24;7.10;;;4.50;;
68126;SDS011;54931;52.098;21.006;2022-07-19T09:03:05;9.70;;;4.60;;
68126;SDS011;54931;52.098;21.006;2022-07-19T09:05:35;9.10;;;4.50;;
68126;SDS011;54931;52.098;21.006;2022-07-19T09:08:15;8.60;;;4.50;;
68126;SDS011;54931;52.098;21.006;2022-07-19T09:10:46;8.50;;;4.40;;
68126;SDS011;54931;52.098;21.006;2022-07-19T09:13:35;8.30;;;4.30;;
68126;SDS011;54931;52.098;21.006;2022-07-19T09:16:03;12.60;;;4.60;;
68126;SDS011;54931;52.098;21.006;2022-07-19T09:18:33;7.80;;;4.30;;
68126;SDS011;54931;52.098;21.006;2022-07-19T09:21:05;9.50;;;4.20;;
68126;SDS011;54931;52.098;21.006;2022-07-19T09:23:33;9.30;;;4.30;;
68126;SDS011;54931;52.098;21.006;2022-07-19T09:26:04;7.20;;;3.80;;
68126;SDS011;54931;52.098;21.006;2022-07-19T09:28:34;8.80;;;4.20;;
68126;SDS011;54931;52.098;21.006;2022-07-19T09:31:03;8.00;;;4.30;;
68126;SDS011;54931;52.098;21.006;2022-07-19T09:33:32;8.80;;;4.40;;
68126;SDS011;54931;52.098;21.006;2022-07-19T09:36:12;7.30;;;4.10;;
68126;SDS011;54931;52.098;21.006;2022-07-19T09:38:40;9.50;;;3.80;;
68126;SDS011;54931;52.098;21.006;2022-07-19T09:41:11;5.60;;;3.80;;
68126;SDS011;54931;52.098;21.006;2022-07-19T09:46:29;6.50;;;3.50;;
68126;SDS011;54931;52.098;21.006;2022-07-19T09:49:21;5.00;;;3.30;;
68126;SDS011;54931;52.098;21.006;2022-07-19T09:51:51;10.70;;;3.70;;
68126;SDS011;54931;52.098;21.006;2022-07-19T09:54:25;5.30;;;3.50;;
68126;SDS011;54931;52.098;21.006;2022-07-19T09:56:55;5.50;;;3.60;;
68126;SDS011;54931;52.098;21.006;2022-07-19T09:59:24;8.20;;;3.20;;
68126;SDS011;54931;52.098;21.006;2022-07-19T10:01:55;7.10;;;3.40;;
68126;SDS011;54931;52.098;21.006;2022-07-19T10:04:25;4.90;;;3.00;;
68126;SDS011;54931;52.098;21.006;2022-07-19T10:06:54;5.10;;;3.30;;
68126;SDS011;54931;52.098;21.006;2022-07-19T10:09:22;6.90;;;3.10;;
68126;SDS011;54931;52.098;21.006;2022-07-19T10:11:51;5.90;;;3.40;;
68126;SDS011;54931;52.098;21.006;2022-07-19T10:14:19;8.30;;;3.00;;
68126;SDS011;54931;52.098;21.006;2022-07-19T10:20:16;5.70;;;2.80;;
68126;SDS011;54931;52.098;21.006;2022-07-19T10:22:48;6.20;;;2.90;;
68126;SDS011;54931;52.098;21.006;2022-07-19T10:25:17;4.50;;;2.60;;
68126;SDS011;54931;52.098;21.006;2022-07-19T10:27:51;5.10;;;2.60;;
68126;SDS011;54931;52.098;21.006;2022-07-19T10:30:24;6.10;;;3.00;;
68126;SDS011;54931;52.098;21.006;2022-07-19T10:32:55;7.80;;;3.10;;
68126;SDS011;54931;52.098;21.006;2022-07-19T10:35:32;5.70;;;2.60;;
68126;SDS011;54931;52.098;21.006;2022-07-19T10:40:53;4.00;;;2.60;;
68126;SDS011;54931;52.098;21.006;2022-07-19T10:43:25;5.60;;;2.70;;
68126;SDS011;54931;52.098;21.006;2022-07-19T10:48:49;7.00;;;2.90;;
68126;SDS011;54931;52.098;21.006;2022-07-19T10:51:31;6.10;;;3.20;;
68126;SDS011;54931;52.098;21.006;2022-07-19T10:54:07;8.50;;;3.60;;
68126;SDS011;54931;52.098;21.006;2022-07-19T10:56:37;7.80;;;3.10;;
68126;SDS011;54931;52.098;21.006;2022-07-19T10:59:11;7.70;;;3.10;;
68126;SDS011;54931;52.098;21.006;2022-07-19T11:01:56;6.60;;;3.60;;
68126;SDS011;54931;52.098;21.006;2022-07-19T11:04:32;5.90;;;3.90;;
68126;SDS011;54931;52.098;21.006;2022-07-19T11:07:11;6.10;;;3.30;;
68126;SDS011;54931;52.098;21.006;2022-07-19T11:09:43;4.70;;;3.10;;
68126;SDS011;54931;52.098;21.006;2022-07-19T11:12:34;4.90;;;3.40;;
68126;SDS011;54931;52.098;21.006;2022-07-19T11:15:09;7.30;;;3.50;;
68126;SDS011;54931;52.098;21.006;2022-07-19T11:17:36;6.20;;;3.40;;
68126;SDS011;54931;52.098;21.006;2022-07-19T11:20:10;6.80;;;3.50;;
68126;SDS011;54931;52.098;21.006;2022-07-19T11:22:44;7.40;;;3.40;;
68126;SDS011;54931;52.098;21.006;2022-07-19T11:25:16;10.20;;;3.50;;
68126;SDS011;54931;52.098;21.006;2022-07-19T11:27:49;6.60;;;3.70;;
68126;SDS011;54931;52.098;21.006;2022-07-19T11:30:17;6.00;;;3.30;;
68126;SDS011;54931;52.098;21.006;2022-07-19T11:32:54;7.10;;;3.60;;
68126;SDS011;54931;52.098;21.006;2022-07-19T11:35:24;7.60;;;3.80;;
68126;SDS011;54931;52.098;21.006;2022-07-19T11:37:54;6.50;;;3.50;;
68126;SDS011;54931;52.098;21.006;2022-07-19T11:40:24;4.80;;;3.60;;
68126;SDS011;54931;52.098;21.006;2022-07-19T11:43:04;7.00;;;3.60;;
68126;SDS011;54931;52.098;21.006;2022-07-19T11:45:47;6.30;;;3.50;;
68126;SDS011;54931;52.098;21.006;2022-07-19T11:48:29;13.10;;;3.90;;
68126;SDS011;54931;52.098;21.006;2022-07-19T11:51:04;6.10;;;3.40;;
68126;SDS011;54931;52.098;21.006;2022-07-19T11:53:35;5.80;;;3.70;;
68126;SDS011;54931;52.098;21.006;2022-07-19T11:56:15;8.20;;;3.50;;
68126;SDS011;54931;52.098;21.006;2022-07-19T11:58:56;7.60;;;3.70;;
68126;SDS011;54931;52.098;21.006;2022-07-19T12:01:28;8.00;;;3.70;;
68126;SDS011;54931;52.098;21.006;2022-07-19T12:04:02;8.20;;;3.90;;
68126;SDS011;54931;52.098;21.006;2022-07-19T12:09:14;6.30;;;3.60;;
68126;SDS011;54931;52.098;21.006;2022-07-19T12:11:44;6.90;;;4.10;;
68126;SDS011;54931;52.098;21.006;2022-07-19T12:14:20;9.10;;;3.70;;
68126;SDS011;54931;52.098;21.006;2022-07-19T12:17:13;7.00;;;3.40;;
68126;SDS011;54931;52.098;21.006;2022-07-19T12:19:45;5.30;;;3.60;;
68126;SDS011;54931;52.098;21.006;2022-07-19T12:22:34;7.30;;;3.90;;
68126;SDS011;54931;52.098;21.006;2022-07-19T12:25:08;6.00;;;3.70;;
68126;SDS011;54931;52.098;21.006;2022-07-19T12:27:36;7.60;;;4.20;;
68126;SDS011;54931;52.098;21.006;2022-07-19T12:30:05;8.50;;;4.00;;
68126;SDS011;54931;52.098;21.006;2022-07-19T12:32:38;10.20;;;4.00;;
68126;SDS011;54931;52.098;21.006;2022-07-19T12:37:44;6.60;;;3.70;;
68126;SDS011;54931;52.098;21.006;2022-07-19T12:40:20;8.50;;;4.10;;
68126;SDS011;54931;52.098;21.006;2022-07-19T12:42:59;8.20;;;4.00;;
68126;SDS011;54931;52.098;21.006;2022-07-19T12:45:36;8.00;;;4.20;;
68126;SDS011;54931;52.098;21.006;2022-07-19T12:48:29;7.90;;;4.10;;
68126;SDS011;54931;52.098;21.006;2022-07-19T12:50:57;6.70;;;3.80;;
68126;SDS011;54931;52.098;21.006;2022-07-19T12:53:24;7.50;;;3.80;;
68126;SDS011;54931;52.098;21.006;2022-07-19T12:55:52;6.90;;;3.90;;
68126;SDS011;54931;52.098;21.006;2022-07-19T12:58:19;6.70;;;3.60;;
68126;SDS011;54931;52.098;21.006;2022-07-19T13:01:05;10.60;;;3.80;;
68126;SDS011;54931;52.098;21.006;2022-07-19T13:03:35;7.20;;;3.70;;
68126;SDS011;54931;52.098;21.006;2022-07-19T13:06:02;6.20;;;3.80;;
68126;SDS011;54931;52.098;21.006;2022-07-19T13:08:30;5.50;;;3.40;;
68126;SDS011;54931;52.098;21.006;2022-07-19T13:10:58;7.60;;;3.90;;
68126;SDS011;54931;52.098;21.006;2022-07-19T13:13:26;8.10;;;3.50;;
68126;SDS011;54931;52.098;21.006;2022-07-19T13:15:54;5.80;;;3.60;;
68126;SDS011;54931;52.098;21.006;2022-07-19T13:18:21;6.80;;;3.60;;
68126;SDS011;54931;52.098;21.006;2022-07-19T13:20:49;6.50;;;3.70;;
68126;SDS011;54931;52.098;21.006;2022-07-19T13:23:16;6.00;;;3.20;;
68126;SDS011;54931;52.098;21.006;2022-07-19T13:25:44;9.30;;;3.70;;
68126;SDS011;54931;52.098;21.006;2022-07-19T13:28:11;7.90;;;4.20;;
68126;SDS011;54931;52.098;21.006;2022-07-19T13:30:39;6.00;;;3.50;;
68126;SDS011;54931;52.098;21.006;2022-07-19T13:33:07;10.40;;;3.70;;
68126;SDS011;54931;52.098;21.006;2022-07-19T13:35:37;8.10;;;3.60;;
68126;SDS011;54931;52.098;21.006;2022-07-19T13:38:05;8.50;;;3.50;;
68126;SDS011;54931;52.098;21.006;2022-07-19T13:40:33;7.00;;;3.90;;
68126;SDS011;54931;52.098;21.006;2022-07-19T13:43:00;8.50;;;3.50;;
68126;SDS011;54931;52.098;21.006;2022-07-19T13:45:28;11.90;;;4.00;;
68126;SDS011;54931;52.098;21.006;2022-07-19T13:47:55;7.60;;;3.80;;
68126;SDS011;54931;52.098;21.006;2022-07-19T13:50:23;18.80;;;4.20;;
68126;SDS011;54931;52.098;21.006;2022-07-19T13:52:50;7.20;;;3.80;;
68126;SDS011;54931;52.098;21.006;2022-07-19T13:55:17;7.10;;;3.60;;
68126;SDS011;54931;52.098;21.006;2022-07-19T13:57:45;8.00;;;3.70;;
68126;SDS011;54931;52.098;21.006;2022-07-19T14:00:13;8.20;;;3.70;;
68126;SDS011;54931;52.098;21.006;2022-07-19T14:02:47;8.40;;;3.70;;
68126;SDS011;54931;52.098;21.006;2022-07-19T14:05:15;5.70;;;3.70;;
68126;SDS011;54931;52.098;21.006;2022-07-19T14:07:43;5.80;;;3.80;;
68126;SDS011;54931;52.098;21.006;2022-07-19T14:10:10;5.20;;;3.60;;
68126;SDS011;54931;52.098;21.006;2022-07-19T14:12:37;7.80;;;4.00;;
68126;SDS011;54931;52.098;21.006;2022-07-19T14:15:05;8.90;;;4.00;;
68126;SDS011;54931;52.098;21.006;2022-07-19T14:17:33;5.10;;;3.40;;
68126;SDS011;54931;52.098;21.006;2022-07-19T14:20:00;7.90;;;3.60;;
68126;SDS011;54931;52.098;21.006;2022-07-19T14:22:28;8.30;;;3.70;;
68126;SDS011;54931;52.098;21.006;2022-07-19T14:24:56;8.40;;;3.70;;
68126;SDS011;54931;52.098;21.006;2022-07-19T14:27:24;7.30;;;3.70;;
68126;SDS011;54931;52.098;21.006;2022-07-19T14:29:51;13.90;;;4.40;;
68126;SDS011;54931;52.098;21.006;2022-07-19T14:32:18;11.30;;;3.90;;
68126;SDS011;54931;52.098;21.006;2022-07-19T14:34:46;8.50;;;3.80;;
68126;SDS011;54931;52.098;21.006;2022-07-19T14:37:13;7.10;;;3.50;;
68126;SDS011;54931;52.098;21.006;2022-07-19T14:39:40;5.80;;;3.50;;
68126;SDS011;54931;52.098;21.006;2022-07-19T14:42:08;5.60;;;3.40;;
68126;SDS011;54931;52.098;21.006;2022-07-19T14:44:35;7.70;;;3.60;;
68126;SDS011;54931;52.098;21.006;2022-07-19T14:47:02;8.30;;;3.90;;
68126;SDS011;54931;52.098;21.006;2022-07-19T14:49:30;8.50;;;3.60;;
68126;SDS011;54931;52.098;21.006;2022-07-19T14:51:57;7.20;;;3.40;;
68126;SDS011;54931;52.098;21.006;2022-07-19T14:54:24;6.10;;;3.60;;
68126;SDS011;54931;52.098;21.006;2022-07-19T14:56:55;7.70;;;4.10;;